Time;durP1;ratioP1;P1;durP2;ratioP2;P2;SDS_P1;SDS_P2;PMS_P1;PMS_P2;Temp;Humidity;BMP_temperature;BMP_pressure;BME280_temperature;BME280_humidity;BME280_pressure;Samples;Min_cycle;Max_cycle;Signal;HPM_P1;HPM_P2
2022/06/08 00:00:58;;;;;;;16.70;2.72;;;;;;;;;;5047092;28;20112;-74
2022/06/08 00:03:50;;;;;;;15.77;2.40;;;;;;;;;;5047331;28;20048;-73
2022/06/08 00:06:20;;;;;;;8.98;2.58;;;;;;;;;;5052688;28;20488;-73
2022/06/08 00:08:50;;;;;;;14.85;3.67;;;;;;;;;;5048186;28;20499;-73
2022/06/08 00:11:21;;;;;;;12.30;2.77;;;;;;;;;;5047529;28;20076;-71
2022/06/08 00:13:51;;;;;;;14.35;3.13;;;;;;;;;;5047150;28;20071;-73
2022/06/08 00:16:21;;;;;;;16.85;3.00;;;;;;;;;;5047501;28;20056;-73
2022/06/08 00:18:51;;;;;;;13.38;2.60;;;;;;;;;;5046819;28;20060;-73
2022/06/08 00:21:21;;;;;;;14.60;3.25;;;;;;;;;;5052358;28;20074;-73
2022/06/08 00:23:51;;;;;;;16.95;6.25;;;;;;;;;;5056895;28;20403;-73
2022/06/08 00:26:20;;;;;;;11.48;3.10;;;;;;;;;;5056117;28;20060;-73
2022/06/08 00:28:51;;;;;;;9.77;3.05;;;;;;;;;;5057815;28;20051;-73
2022/06/08 00:31:22;;;;;;;12.43;2.13;;;;;;;;;;5057880;28;20055;-73
2022/06/08 00:33:52;;;;;;;8.60;2.10;;;;;;;;;;5067145;28;20043;-75
2022/06/08 00:36:22;;;;;;;10.48;1.85;;;;;;;;;;5064299;28;20061;-73
2022/06/08 00:38:52;;;;;;;11.65;2.58;;;;;;;;;;5064713;28;20385;-73
2022/06/08 00:41:28;;;;;;;19.10;2.15;;;;;;;;;;5098648;28;20056;-73
2022/06/08 00:44:02;;;;;;;6.80;2.50;;;;;;;;;;5065452;28;20063;-73
2022/06/08 00:46:32;;;;;;;8.23;2.05;;;;;;;;;;5098231;28;20052;-73
2022/06/08 00:49:12;;;;;;;7.72;2.03;;;;;;;;;;5065643;28;20056;-73
2022/06/08 00:51:42;;;;;;;17.55;6.38;;;;;;;;;;5061071;28;20471;-72
2022/06/08 00:54:21;;;;;;;7.65;1.80;;;;;;;;;;5063895;28;20056;-74
2022/06/08 00:56:58;;;;;;;9.77;1.92;;;;;;;;;;5066224;28;20534;-73
2022/06/08 00:59:30;;;;;;;8.65;2.20;;;;;;;;;;5066169;28;20047;-73
2022/06/08 01:02:00;;;;;;;6.85;1.95;;;;;;;;;;5066234;28;20040;-73
2022/06/08 01:04:34;;;;;;;10.60;3.50;;;;;;;;;;5064934;28;20491;-73
2022/06/08 01:07:05;;;;;;;7.68;3.10;;;;;;;;;;5065414;28;20048;-73
2022/06/08 01:09:38;;;;;;;;;;;;;;;;;;5064851;28;20420;-73
2022/06/08 01:12:13;;;;;;;11.65;2.92;;;;;;;;;;5065277;28;19925;-73
2022/06/08 01:14:49;;;;;;;13.32;2.40;;;;;;;;;;5064548;28;20059;-73
2022/06/08 01:17:21;;;;;;;12.57;4.10;;;;;;;;;;5064523;28;20080;-74
2022/06/08 01:19:56;;;;;;;10.70;5.07;;;;;;;;;;5066385;28;20044;-73
2022/06/08 01:22:30;;;;;;;11.63;3.95;;;;;;;;;;5063477;28;20772;-73
2022/06/08 01:25:02;;;;;;;7.38;2.42;;;;;;;;;;5064492;28;20056;-73
2022/06/08 01:27:44;;;;;;;11.27;2.72;;;;;;;;;;5064031;28;20056;-73
2022/06/08 01:30:22;;;;;;;12.88;2.80;;;;;;;;;;5065063;28;20053;-74
2022/06/08 01:33:29;;;;;;;12.98;2.05;;;;;;;;;;5064127;28;20052;-73
2022/06/08 01:36:22;;;;;;;10.30;2.25;;;;;;;;;;5066295;28;20051;-74
2022/06/08 01:39:06;;;;;;;6.43;1.90;;;;;;;;;;5065548;28;20064;-74
2022/06/08 01:41:42;;;;;;;9.98;1.63;;;;;;;;;;5066540;28;20499;-74
2022/06/08 01:44:34;;;;;;;9.63;2.08;;;;;;;;;;5066398;28;20045;-73
2022/06/08 01:47:39;;;;;;;8.48;2.00;;;;;;;;;;5066291;28;20055;-73
2022/06/08 01:50:52;;;;;;;4.45;1.75;;;;;;;;;;5066327;28;20045;-73
2022/06/08 01:53:22;;;;;;;7.15;2.05;;;;;;;;;;5055191;28;20056;-73
2022/06/08 01:56:00;;;;;;;4.85;1.88;;;;;;;;;;5096637;28;20052;-73
2022/06/08 01:59:05;;;;;;;7.47;2.10;;;;;;;;;;5055236;28;20132;-73
2022/06/08 02:01:49;;;;;;;10.48;2.00;;;;;;;;;;5042569;28;20053;-76
2022/06/08 02:04:31;;;;;;;4.32;1.63;;;;;;;;;;5043732;28;20048;-72
2022/06/08 02:07:07;;;;;;;;;;;;;;;;;;5042426;28;20048;-74
2022/06/08 02:09:53;;;;;;;6.82;2.38;;;;;;;;;;5042033;28;19921;-74
2022/06/08 02:12:24;;;;;;;12.07;2.35;;;;;;;;;;5041709;28;20049;-74
2022/06/08 02:15:18;;;;;;;13.30;2.05;;;;;;;;;;5042057;28;20056;-74
2022/06/08 02:17:57;;;;;;;10.63;2.40;;;;;;;;;;5047165;28;20504;-74
2022/06/08 02:20:51;;;;;;;12.82;2.95;;;;;;;;;;5047625;28;20057;-74
2022/06/08 02:23:41;;;;;;;6.50;2.80;;;;;;;;;;5047735;28;20057;-74
2022/06/08 02:26:20;;;;;;;16.48;3.50;;;;;;;;;;5045727;28;20056;-73
2022/06/08 02:29:04;;;;;;;13.45;2.88;;;;;;;;;;5048640;28;20056;-72
2022/06/08 02:32:04;;;;;;;14.57;3.47;;;;;;;;;;5047485;28;20056;-72
2022/06/08 02:34:38;;;;;;;8.45;3.22;;;;;;;;;;5048805;28;20053;-73
2022/06/08 02:37:13;;;;;;;14.25;2.88;;;;;;;;;;5046699;28;20404;-73
2022/06/08 02:39:47;;;;;;;7.88;2.33;;;;;;;;;;5047390;28;20053;-73
2022/06/08 02:42:23;;;;;;;5.63;2.67;;;;;;;;;;5049324;28;20052;-73
2022/06/08 02:44:59;;;;;;;8.70;2.70;;;;;;;;;;5046899;28;20132;-73
2022/06/08 02:47:31;;;;;;;8.20;2.60;;;;;;;;;;5047449;28;20060;-72
2022/06/08 02:50:15;;;;;;;9.82;2.72;;;;;;;;;;5047571;28;20052;-73
2022/06/08 02:52:49;;;;;;;17.20;2.85;;;;;;;;;;5046963;28;20412;-73
2022/06/08 02:55:39;;;;;;;13.70;2.72;;;;;;;;;;5047361;28;20051;-72
2022/06/08 02:58:18;;;;;;;4.10;2.28;;;;;;;;;;5046899;28;20053;-72
2022/06/08 03:00:54;;;;;;;8.45;2.80;;;;;;;;;;5048634;28;20064;-72
2022/06/08 03:03:41;;;;;;;10.57;2.83;;;;;;;;;;5047671;28;20053;-72
2022/06/08 03:06:22;;;;;;;15.05;3.35;;;;;;;;;;5047226;28;20053;-72
2022/06/08 03:09:00;;;;;;;9.68;3.22;;;;;;;;;;5048009;28;20092;-72
2022/06/08 03:11:43;;;;;;;14.70;3.35;;;;;;;;;;5047691;28;20056;-72
2022/06/08 03:14:16;;;;;;;14.73;3.10;;;;;;;;;;5047481;28;20041;-72
2022/06/08 03:17:02;;;;;;;7.43;2.75;;;;;;;;;;5046482;28;20059;-72
2022/06/08 03:19:34;;;;;;;11.73;3.08;;;;;;;;;;5047216;28;20053;-72
2022/06/08 03:22:06;;;;;;;10.20;3.00;;;;;;;;;;5047063;28;20049;-72
2022/06/08 03:24:36;;;;;;;;;;;;;;;;;;5047132;28;20672;-73
2022/06/08 03:27:08;;;;;;;10.50;2.65;;;;;;;;;;5046346;28;20383;-73
2022/06/08 03:29:42;;;;;;;8.60;2.47;;;;;;;;;;5046397;28;20049;-72
2022/06/08 03:32:12;;;;;;;6.20;2.60;;;;;;;;;;5046990;28;20065;-72
2022/06/08 03:34:43;;;;;;;5.28;2.58;;;;;;;;;;5046681;28;20079;-72
2022/06/08 03:37:15;;;;;;;6.45;2.67;;;;;;;;;;5046374;28;20367;-72
2022/06/08 03:39:50;;;;;;;12.98;3.13;;;;;;;;;;5046781;28;20056;-73
2022/06/08 03:42:22;;;;;;;222.95;10.93;;;;;;;;;;5046762;28;20106;-72
2022/06/08 03:44:53;;;;;;;345.52;13.50;;;;;;;;;;5046581;28;20048;-72
2022/06/08 03:47:28;;;;;;;219.10;7.53;;;;;;;;;;5046222;28;20059;-72
2022/06/08 03:50:01;;;;;;;65.82;4.00;;;;;;;;;;5047345;28;20063;-72
2022/06/08 03:52:36;;;;;;;182.25;6.75;;;;;;;;;;5046319;28;20432;-72
2022/06/08 03:55:08;;;;;;;212.35;6.65;;;;;;;;;;5048299;28;20052;-72
2022/06/08 03:57:44;;;;;;;159.40;5.43;;;;;;;;;;5046186;28;20404;-72
2022/06/08 04:00:18;;;;;;;125.05;4.50;;;;;;;;;;5046092;28;20053;-72
2022/06/08 04:03:02;;;;;;;169.95;5.13;;;;;;;;;;5045968;28;20052;-72
2022/06/08 04:05:33;;;;;;;115.43;5.00;;;;;;;;;;5045310;28;20068;-72
2022/06/08 04:08:08;;;;;;;86.20;4.43;;;;;;;;;;5045754;28;20100;-72
2022/06/08 04:10:46;;;;;;;11.15;1.90;;;;;;;;;;5030645;28;20053;-72
2022/06/08 04:13:16;;;;;;;7.28;2.40;;;;;;;;;;5045687;28;20075;-73
2022/06/08 04:15:49;;;;;;;2.08;1.58;;;;;;;;;;5045905;28;20051;-72
2022/06/08 04:18:34;;;;;;;6.65;1.90;;;;;;;;;;5045379;28;20052;-73
2022/06/08 04:21:09;;;;;;;;;;;;;;;;;;5047858;28;20041;-72
2022/06/08 04:23:53;;;;;;;11.55;1.60;;;;;;;;;;5048034;28;19920;-72
2022/06/08 04:26:27;;;;;;;13.98;2.03;;;;;;;;;;5045387;28;20053;-72
2022/06/08 04:29:08;;;;;;;6.20;1.60;;;;;;;;;;5045199;28;20052;-72
2022/06/08 04:31:41;;;;;;;7.30;1.50;;;;;;;;;;5044832;28;20057;-72
2022/06/08 04:34:24;;;;;;;9.27;2.08;;;;;;;;;;5045263;28;20538;-72
2022/06/08 04:36:54;;;;;;;9.82;1.60;;;;;;;;;;5045675;28;20068;-72
2022/06/08 04:39:34;;;;;;;18.02;1.77;;;;;;;;;;5044931;28;20052;-72
2022/06/08 04:42:05;;;;;;;10.63;1.73;;;;;;;;;;5045083;28;20060;-72
2022/06/08 04:44:40;;;;;;;10.38;2.05;;;;;;;;;;5045380;28;20049;-72
2022/06/08 04:47:15;;;;;;;7.00;1.63;;;;;;;;;;5045506;28;20064;-72
2022/06/08 04:49:48;;;;;;;7.97;2.13;;;;;;;;;;5045698;28;20052;-71
2022/06/08 04:52:19;;;;;;;10.00;1.90;;;;;;;;;;5045138;28;20053;-72
2022/06/08 04:54:49;;;;;;;5.50;1.45;;;;;;;;;;5044360;28;20424;-72
2022/06/08 04:57:19;;;;;;;10.38;1.38;;;;;;;;;;5043438;28;20063;-72
2022/06/08 04:59:53;;;;;;;9.48;1.90;;;;;;;;;;5045002;28;20420;-72
2022/06/08 05:02:47;;;;;;;4.75;1.42;;;;;;;;;;5044850;28;20053;-72
2022/06/08 05:05:35;;;;;;;7.47;1.70;;;;;;;;;;5044437;28;20056;-72
2022/06/08 05:08:08;;;;;;;3.47;1.70;;;;;;;;;;5046860;28;20049;-72
2022/06/08 05:10:45;;;;;;;19.90;2.33;;;;;;;;;;5045065;28;20435;-72
2022/06/08 05:13:21;;;;;;;11.35;2.65;;;;;;;;;;5044768;28;20041;-72
2022/06/08 05:16:01;;;;;;;4.68;1.70;;;;;;;;;;5044797;28;20060;-72
2022/06/08 05:18:34;;;;;;;10.45;1.88;;;;;;;;;;5044752;28;20055;-72
2022/06/08 05:21:09;;;;;;;8.48;2.03;;;;;;;;;;5044709;28;20052;-72
2022/06/08 05:23:43;;;;;;;15.60;2.17;;;;;;;;;;5045118;28;20433;-72
2022/06/08 05:26:17;;;;;;;14.85;2.30;;;;;;;;;;5044737;28;20068;-72
2022/06/08 05:28:48;;;;;;;13.20;2.15;;;;;;;;;;5044711;28;20054;-71
2022/06/08 05:31:19;;;;;;;51.53;2.90;;;;;;;;;;5044925;28;20048;-72
2022/06/08 05:33:53;;;;;;;68.75;3.33;;;;;;;;;;5044948;28;20049;-72
2022/06/08 05:36:25;;;;;;;169.82;5.68;;;;;;;;;;5044655;28;20057;-71
2022/06/08 05:38:56;;;;;;;155.10;5.43;;;;;;;;;;5044274;28;20049;-71
2022/06/08 05:41:32;;;;;;;88.63;4.65;;;;;;;;;;5044713;28;20052;-72
2022/06/08 05:44:02;;;;;;;177.33;6.30;;;;;;;;;;5046645;28;20049;-72
2022/06/08 05:46:32;;;;;;;127.78;6.47;;;;;;;;;;5044576;28;20309;-72
2022/06/08 05:49:07;;;;;;;87.78;4.82;;;;;;;;;;5043605;28;20068;-72
2022/06/08 05:51:41;;;;;;;82.25;4.63;;;;;;;;;;5045287;28;20045;-72
2022/06/08 05:54:13;;;;;;;115.78;6.57;;;;;;;;;;5048703;28;20045;-72
2022/06/08 05:56:43;;;;;;;120.07;6.03;;;;;;;;;;5048355;28;20053;-71
2022/06/08 05:59:14;;;;;;;180.43;6.22;;;;;;;;;;5048730;28;20520;-72
2022/06/08 06:01:44;;;;;;;184.93;6.38;;;;;;;;;;5048301;28;20068;-72
2022/06/08 06:04:15;;;;;;;229.70;7.00;;;;;;;;;;5048551;28;20503;-71
2022/06/08 06:06:46;;;;;;;145.68;4.90;;;;;;;;;;5048187;28;20527;-72
2022/06/08 06:09:20;;;;;;;150.45;5.20;;;;;;;;;;5048111;28;20060;-72
2022/06/08 06:11:51;;;;;;;227.73;6.00;;;;;;;;;;5047913;28;20045;-72
2022/06/08 06:14:23;;;;;;;156.77;4.72;;;;;;;;;;5048114;28;20045;-72
2022/06/08 06:16:55;;;;;;;226.10;7.15;;;;;;;;;;5047584;28;20059;-72
2022/06/08 06:19:26;;;;;;;278.25;6.82;;;;;;;;;;5048066;28;20048;-72
2022/06/08 06:22:17;;;;;;;;;;;;;;;;;;5049183;28;20063;-72
2022/06/08 06:25:11;;;;;;;191.57;4.80;;;;;;;;;;5049782;28;19926;-71
2022/06/08 06:28:03;;;;;;;102.25;3.85;;;;;;;;;;5049250;28;20045;-72
2022/06/08 06:30:51;;;;;;;210.77;5.30;;;;;;;;;;5047555;28;20770;-72
2022/06/08 06:33:33;;;;;;;185.38;6.82;;;;;;;;;;5047761;28;20057;-72
2022/06/08 06:36:05;;;;;;;127.55;4.35;;;;;;;;;;5047507;28;20415;-72
2022/06/08 06:38:36;;;;;;;318.92;9.18;;;;;;;;;;5047961;28;20061;-72
2022/06/08 06:41:13;;;;;;;238.38;4.63;;;;;;;;;;5031451;28;20049;-72
2022/06/08 06:43:45;;;;;;;249.18;6.05;;;;;;;;;;5047748;28;20428;-72
2022/06/08 06:46:24;;;;;;;199.55;5.40;;;;;;;;;;5047561;28;20489;-72
2022/06/08 06:49:07;;;;;;;239.90;6.63;;;;;;;;;;5048952;28;20044;-72
2022/06/08 06:51:39;;;;;;;369.20;8.32;;;;;;;;;;5047416;28;20413;-72
2022/06/08 06:54:11;;;;;;;369.13;10.00;;;;;;;;;;5047557;28;20057;-72
2022/06/08 06:56:42;;;;;;;385.58;8.15;;;;;;;;;;5047208;28;20873;-72
2022/06/08 06:59:18;;;;;;;394.40;9.05;;;;;;;;;;5047523;28;20057;-73
2022/06/08 07:01:48;;;;;;;416.10;8.60;;;;;;;;;;5047065;28;20049;-72
2022/06/08 07:04:19;;;;;;;275.50;6.57;;;;;;;;;;5048094;28;20045;-72
2022/06/08 07:06:49;;;;;;;405.23;8.15;;;;;;;;;;5047370;28;20063;-72
2022/06/08 07:09:20;;;;;;;431.93;9.50;;;;;;;;;;5027596;28;20068;-72
2022/06/08 07:11:52;;;;;;;230.43;5.75;;;;;;;;;;5027333;28;20303;-72
2022/06/08 07:14:29;;;;;;;120.97;3.60;;;;;;;;;;5027584;28;20048;-72
2022/06/08 07:17:02;;;;;;;375.67;7.38;;;;;;;;;;5027437;28;20504;-72
2022/06/08 07:19:37;;;;;;;396.42;10.00;;;;;;;;;;5027377;28;20049;-72
2022/06/08 07:22:11;;;;;;;238.20;5.47;;;;;;;;;;5026629;28;20053;-72
2022/06/08 07:24:41;;;;;;;151.07;4.20;;;;;;;;;;5029016;28;20052;-72
2022/06/08 07:27:11;;;;;;;221.95;6.13;;;;;;;;;;5027314;28;20045;-73
2022/06/08 07:29:41;;;;;;;145.00;3.72;;;;;;;;;;5028581;28;20045;-72
2022/06/08 07:32:10;;;;;;;138.93;4.93;;;;;;;;;;5028380;28;20067;-72
2022/06/08 07:34:40;;;;;;;152.95;4.75;;;;;;;;;;5027137;28;20049;-72
2022/06/08 07:37:10;;;;;;;253.73;4.85;;;;;;;;;;5027641;28;20547;-73
2022/06/08 07:39:41;;;;;;;233.82;5.35;;;;;;;;;;5028181;28;20053;-72
2022/06/08 07:42:11;;;;;;;125.82;3.35;;;;;;;;;;5027142;28;20060;-72
2022/06/08 07:44:40;;;;;;;233.80;5.05;;;;;;;;;;5028249;28;20053;-73
2022/06/08 07:47:10;;;;;;;191.70;5.63;;;;;;;;;;5027992;28;20524;-72
2022/06/08 07:49:41;;;;;;;194.75;3.90;;;;;;;;;;5026259;28;20069;-72
2022/06/08 07:52:17;;;;;;;118.67;2.37;;;;;;;;;;5027728;28;20037;-72
2022/06/08 07:54:48;;;;;;;111.60;2.28;;;;;;;;;;5027225;28;20049;-73
2022/06/08 07:57:23;;;;;;;160.57;4.00;;;;;;;;;;5028004;28;20038;-73
2022/06/08 07:59:56;;;;;;;158.90;4.47;;;;;;;;;;5026557;28;20515;-72
2022/06/08 08:02:26;;;;;;;201.90;3.72;;;;;;;;;;5027244;28;20401;-72
2022/06/08 08:04:57;;;;;;;205.60;5.32;;;;;;;;;;5028111;28;20113;-72
2022/06/08 08:07:26;;;;;;;105.45;3.38;;;;;;;;;;5031433;28;20436;-72
2022/06/08 08:09:56;;;;;;;154.68;4.07;;;;;;;;;;5046078;28;20053;-73
2022/06/08 08:12:26;;;;;;;123.35;3.28;;;;;;;;;;5047286;28;20556;-72
2022/06/08 08:14:56;;;;;;;122.07;3.80;;;;;;;;;;5046636;28;20049;-72
2022/06/08 08:17:26;;;;;;;122.28;6.15;;;;;;;;;;5046020;28;20044;-72
2022/06/08 08:19:56;;;;;;;101.30;2.95;;;;;;;;;;5047250;28;20049;-72
2022/06/08 08:22:26;;;;;;;133.48;3.70;;;;;;;;;;5047294;28;20048;-72
2022/06/08 08:24:57;;;;;;;140.43;3.22;;;;;;;;;;5046839;28;20045;-72
2022/06/08 08:27:27;;;;;;;87.47;3.80;;;;;;;;;;5046677;28;20064;-73
2022/06/08 08:29:58;;;;;;;131.02;4.35;;;;;;;;;;5045462;28;20076;-73
2022/06/08 08:32:28;;;;;;;112.15;3.15;;;;;;;;;;5046051;28;20068;-73
2022/06/08 08:34:57;;;;;;;106.88;3.70;;;;;;;;;;5047267;28;20519;-72
2022/06/08 08:37:28;;;;;;;292.65;9.75;;;;;;;;;;5046784;28;20048;-72
2022/06/08 08:39:58;;;;;;;346.50;9.90;;;;;;;;;;5046565;28;20041;-75
2022/06/08 08:42:28;;;;;;;312.08;8.95;;;;;;;;;;5047021;28;20041;-72
2022/06/08 08:45:06;;;;;;;132.38;5.45;;;;;;;;;;5046636;28;20045;-73
2022/06/08 08:47:39;;;;;;;125.82;4.63;;;;;;;;;;5046772;28;20056;-73
2022/06/08 08:50:19;;;;;;;204.20;6.75;;;;;;;;;;5046902;28;20037;-72
2022/06/08 08:52:51;;;;;;;223.23;6.13;;;;;;;;;;5046721;28;20045;-73
2022/06/08 08:55:38;;;;;;;276.98;8.32;;;;;;;;;;5046588;28;20045;-72
2022/06/08 08:58:34;;;;;;;287.60;7.85;;;;;;;;;;5044794;28;20539;-73
2022/06/08 09:01:34;;;;;;;315.88;8.77;;;;;;;;;;5045082;28;20041;-72
2022/06/08 09:04:31;;;;;;;307.02;9.00;;;;;;;;;;5045395;28;20057;-72
2022/06/08 09:07:16;;;;;;;96.07;2.78;;;;;;;;;;5045661;28;20045;-72
2022/06/08 09:09:46;;;;;;;225.23;5.47;;;;;;;;;;5045826;28;20052;-73
2022/06/08 09:12:21;;;;;;;251.13;5.53;;;;;;;;;;5044379;28;20048;-72
2022/06/08 09:14:59;;;;;;;202.20;5.38;;;;;;;;;;5029208;28;20048;-73
2022/06/08 09:17:37;;;;;;;158.68;3.88;;;;;;;;;;5046229;28;20045;-73
2022/06/08 09:20:31;;;;;;;130.35;3.97;;;;;;;;;;5047482;28;20048;-74
2022/06/08 09:23:34;;;;;;;332.02;7.47;;;;;;;;;;5046684;28;20053;-72
2022/06/08 09:26:14;;;;;;;114.30;4.05;;;;;;;;;;5045755;28;20504;-75
2022/06/08 09:28:44;;;;;;;257.33;7.40;;;;;;;;;;5050434;28;20064;-73
2022/06/08 09:31:27;;;;;;;155.50;4.07;;;;;;;;;;5050786;28;20519;-73
2022/06/08 09:34:25;;;;;;;207.20;4.97;;;;;;;;;;5050306;28;20053;-71
2022/06/08 09:37:06;;;;;;;199.23;4.60;;;;;;;;;;5049953;28;20072;-72
2022/06/08 09:39:42;;;;;;;149.45;5.20;;;;;;;;;;5048969;28;20057;-73
2022/06/08 09:42:25;;;;;;;230.52;6.50;;;;;;;;;;5031839;28;20416;-72
2022/06/08 09:45:27;;;;;;;333.88;8.95;;;;;;;;;;5051034;28;20048;-73
2022/06/08 09:51:32;;;;;;;167.68;4.47;;;;;;;;;;5049848;28;20534;-73
2022/06/08 09:54:02;;;;;;;180.75;4.95;;;;;;;;;;5050606;28;20519;-73
2022/06/08 09:56:39;;;;;;;155.85;5.18;;;;;;;;;;5050467;28;20044;-74
2022/06/08 09:59:18;;;;;;;221.00;7.05;;;;;;;;;;5049619;28;20681;-74
2022/06/08 10:01:52;;;;;;;167.55;6.78;;;;;;;;;;5049683;28;20080;-72
2022/06/08 10:04:29;;;;;;;210.30;6.20;;;;;;;;;;5050087;28;20033;-73
2022/06/08 10:07:27;;;;;;;275.67;8.10;;;;;;;;;;5049174;28;20059;-73
2022/06/08 10:10:23;;;;;;;241.13;9.27;;;;;;;;;;5050186;28;20416;-73
2022/06/08 10:12:59;;;;;;;203.68;4.75;;;;;;;;;;5049782;28;20778;-75
2022/06/08 10:15:32;;;;;;;225.43;5.32;;;;;;;;;;5048399;28;20059;-73
2022/06/08 10:18:34;;;;;;;271.52;7.47;;;;;;;;;;5049537;28;20037;-74
2022/06/08 10:21:17;;;;;;;212.43;5.30;;;;;;;;;;5049458;28;20044;-74
2022/06/08 10:24:07;;;;;;;243.70;7.50;;;;;;;;;;5048300;28;20784;-75
2022/06/08 10:26:52;;;;;;;139.55;5.63;;;;;;;;;;5048996;28;20404;-77
2022/06/08 10:29:25;;;;;;;160.15;3.97;;;;;;;;;;5049343;28;20492;-75
2022/06/08 10:31:58;;;;;;;49.10;2.15;;;;;;;;;;5050031;28;20594;-79
2022/06/08 10:34:33;;;;;;;113.63;3.08;;;;;;;;;;5049227;28;20045;-75
2022/06/08 10:37:18;;;;;;;45.85;2.72;;;;;;;;;;5048036;28;20063;-74
2022/06/08 10:39:49;;;;;;;113.40;3.65;;;;;;;;;;5046524;28;20084;-75
2022/06/08 10:42:39;;;;;;;65.63;2.92;;;;;;;;;;5047814;28;20045;-73
2022/06/08 10:45:26;;;;;;;82.43;2.35;;;;;;;;;;5049155;28;20539;-75
2022/06/08 10:47:58;;;;;;;87.40;2.50;;;;;;;;;;5048341;28;20480;-74
2022/06/08 10:50:38;;;;;;;103.07;2.83;;;;;;;;;;5048756;28;20053;-75
2022/06/08 10:56:35;;;;;;;199.10;6.13;;;;;;;;;;5049045;28;20404;-75
2022/06/08 10:59:08;;;;;;;188.82;8.13;;;;;;;;;;5049139;28;20051;-74
2022/06/08 11:01:50;;;;;;;110.78;4.25;;;;;;;;;;5049051;28;20115;-75
2022/06/08 11:04:32;;;;;;;156.55;6.97;;;;;;;;;;5048771;28;20049;-75
2022/06/08 11:07:19;;;;;;;143.45;6.65;;;;;;;;;;5048086;28;20044;-73
2022/06/08 11:09:59;;;;;;;240.95;10.25;;;;;;;;;;5043088;28;20056;-74
2022/06/08 11:12:50;;;;;;;130.00;4.45;;;;;;;;;;5044420;28;20060;-75
2022/06/08 11:15:48;;;;;;;151.85;4.07;;;;;;;;;;5046400;28;20044;-77
2022/06/08 11:18:40;;;;;;;105.88;2.70;;;;;;;;;;5042296;28;20059;-72
2022/06/08 11:21:14;;;;;;;44.03;2.03;;;;;;;;;;5048118;28;20059;-75
2022/06/08 11:23:50;;;;;;;70.82;2.92;;;;;;;;;;5048549;28;20056;-74
2022/06/08 11:26:21;;;;;;;141.55;5.85;;;;;;;;;;5047085;28;20041;-75
2022/06/08 11:28:57;;;;;;;135.40;4.22;;;;;;;;;;5048293;28;20465;-74
2022/06/08 11:31:30;;;;;;;105.63;3.05;;;;;;;;;;5047294;28;20053;-75
2022/06/08 11:34:03;;;;;;;135.35;5.68;;;;;;;;;;5045259;28;20060;-74
2022/06/08 11:36:52;;;;;;;;;;;;;;;;;;5047793;28;20045;-75
2022/06/08 11:39:44;;;;;;;86.45;3.30;;;;;;;;;;5047264;28;20407;-74
2022/06/08 11:42:22;;;;;;;107.63;3.92;;;;;;;;;;5045523;28;20427;-74
2022/06/08 11:44:56;;;;;;;40.17;2.60;;;;;;;;;;5047528;28;20108;-75
2022/06/08 11:47:34;;;;;;;67.47;3.70;;;;;;;;;;5047909;28;20531;-74
2022/06/08 11:50:12;;;;;;;121.93;3.72;;;;;;;;;;5047798;28;20049;-74
2022/06/08 11:52:46;;;;;;;274.88;6.57;;;;;;;;;;5046736;28;20056;-74
2022/06/08 11:55:25;;;;;;;94.97;5.50;;;;;;;;;;5047858;28;20040;-74
2022/06/08 11:58:04;;;;;;;194.98;4.50;;;;;;;;;;5047075;28;20048;-76
2022/06/08 12:00:51;;;;;;;121.82;4.00;;;;;;;;;;5030886;28;20052;-75
2022/06/08 12:03:46;;;;;;;60.05;2.75;;;;;;;;;;5048068;28;20041;-74
2022/06/08 12:06:22;;;;;;;77.22;2.08;;;;;;;;;;5047794;28;20037;-74
2022/06/08 12:09:06;;;;;;;138.35;4.97;;;;;;;;;;5047386;28;20080;-75
2022/06/08 12:11:41;;;;;;;194.40;5.57;;;;;;;;;;5047638;28;20053;-75
2022/06/08 12:14:26;;;;;;;68.78;4.10;;;;;;;;;;5047333;28;20385;-73
2022/06/08 12:17:06;;;;;;;187.50;5.18;;;;;;;;;;5047421;28;20063;-74
2022/06/08 12:19:51;;;;;;;114.88;3.92;;;;;;;;;;5047065;28;20056;-75
2022/06/08 12:22:25;;;;;;;100.82;3.45;;;;;;;;;;5047057;28;20510;-75
2022/06/08 12:25:13;;;;;;;94.60;3.42;;;;;;;;;;5046997;28;20052;-76
2022/06/08 12:27:51;;;;;;;120.93;4.97;;;;;;;;;;5047176;28;20037;-75
2022/06/08 12:30:26;;;;;;;120.38;4.47;;;;;;;;;;5047248;28;20067;-74
2022/06/08 12:33:17;;;;;;;179.65;6.78;;;;;;;;;;5045815;28;20060;-73
2022/06/08 12:35:58;;;;;;;70.60;3.63;;;;;;;;;;5047095;28;20500;-74
2022/06/08 12:38:29;;;;;;;128.35;4.07;;;;;;;;;;5046793;28;20515;-74
2022/06/08 12:41:19;;;;;;;87.70;3.97;;;;;;;;;;5047040;28;20053;-75
2022/06/08 12:44:03;;;;;;;26.73;2.10;;;;;;;;;;5047325;28;20044;-74
2022/06/08 12:46:36;;;;;;;41.22;3.05;;;;;;;;;;5046635;28;20045;-74
2022/06/08 12:49:25;;;;;;;23.92;2.00;;;;;;;;;;5046812;28;20053;-74
2022/06/08 12:52:00;;;;;;;34.80;2.45;;;;;;;;;;5046442;28;20044;-75
2022/06/08 12:54:36;;;;;;;15.25;3.10;;;;;;;;;;5046034;28;20511;-74
2022/06/08 12:57:19;;;;;;;11.75;2.08;;;;;;;;;;5045083;28;20056;-75
2022/06/08 12:59:52;;;;;;;31.23;2.60;;;;;;;;;;5046487;28;20546;-76
2022/06/08 13:02:35;;;;;;;16.63;2.47;;;;;;;;;;5045613;28;20408;-74
2022/06/08 13:05:16;;;;;;;19.80;2.40;;;;;;;;;;5046266;28;20044;-73
2022/06/08 13:07:46;;;;;;;12.55;2.28;;;;;;;;;;5047147;28;20786;-73
2022/06/08 13:10:16;;;;;;;15.10;3.38;;;;;;;;;;5046389;28;20049;-73
2022/06/08 13:12:55;;;;;;;5.93;2.17;;;;;;;;;;5046157;28;20053;-72
2022/06/08 13:15:31;;;;;;;2.35;2.13;;;;;;;;;;5045280;28;20045;-73
2022/06/08 13:18:02;;;;;;;6.10;2.20;;;;;;;;;;5055546;28;20056;-72
2022/06/08 13:20:36;;;;;;;6.07;3.00;;;;;;;;;;5072349;28;20032;-74
2022/06/08 13:23:06;;;;;;;17.77;2.97;;;;;;;;;;5072196;28;20060;-73
2022/06/08 13:25:37;;;;;;;9.77;2.35;;;;;;;;;;5071331;28;20055;-73
2022/06/08 13:28:11;;;;;;;6.60;2.30;;;;;;;;;;5072151;28;20045;-73
2022/06/08 13:30:44;;;;;;;7.22;5.93;;;;;;;;;;5049700;28;20057;-73
2022/06/08 13:36:24;;;;;;;5.50;3.15;;;;;;;;;;5044288;28;20053;-73
2022/06/08 13:39:09;;;;;;;4.95;2.30;;;;;;;;;;5046401;28;20077;-72
2022/06/08 13:41:41;;;;;;;10.38;2.65;;;;;;;;;;5046291;28;20049;-73
2022/06/08 13:44:25;;;;;;;5.72;2.20;;;;;;;;;;5046362;28;20052;-77
2022/06/08 13:47:07;;;;;;;3.05;2.60;;;;;;;;;;5046625;28;20048;-73
2022/06/08 13:49:43;;;;;;;9.63;2.90;;;;;;;;;;5046228;28;20037;-73
2022/06/08 13:52:21;;;;;;;8.77;2.40;;;;;;;;;;5046205;28;20618;-74
2022/06/08 13:54:54;;;;;;;8.63;3.15;;;;;;;;;;5045934;28;20040;-73
2022/06/08 13:57:26;;;;;;;13.70;3.95;;;;;;;;;;5046666;28;20056;-73
2022/06/08 13:59:57;;;;;;;7.85;2.95;;;;;;;;;;5046609;28;20365;-73
2022/06/08 14:02:42;;;;;;;8.13;2.75;;;;;;;;;;5044589;28;20056;-73
2022/06/08 14:05:19;;;;;;;4.07;2.65;;;;;;;;;;5045729;28;20045;-73
2022/06/08 14:13:30;;;;;;;5.60;2.33;;;;;;;;;;5046127;28;20075;-73
2022/06/08 14:16:05;;;;;;;2.47;2.05;;;;;;;;;;5049689;28;20500;-74
2022/06/08 14:18:43;;;;;;;2.85;2.40;;;;;;;;;;5049600;28;20049;-74
2022/06/08 14:21:15;;;;;;;3.05;2.00;;;;;;;;;;5049583;28;20504;-73
2022/06/08 14:23:48;;;;;;;3.50;2.22;;;;;;;;;;5049865;28;20064;-74
2022/06/08 14:26:21;;;;;;;9.77;2.70;;;;;;;;;;5049495;28;20048;-74
2022/06/08 14:28:55;;;;;;;4.10;2.17;;;;;;;;;;5049539;28;20068;-74
2022/06/08 14:31:35;;;;;;;3.63;2.45;;;;;;;;;;5048878;28;20057;-74
2022/06/08 14:34:33;;;;;;;3.58;2.25;;;;;;;;;;5049044;28;20064;-74
2022/06/08 14:37:08;;;;;;;7.75;2.42;;;;;;;;;;5049200;28;20037;-74
2022/06/08 14:39:40;;;;;;;4.43;2.05;;;;;;;;;;5049243;28;20045;-75
2022/06/08 14:42:12;;;;;;;2.70;1.90;;;;;;;;;;5049098;28;20049;-79
2022/06/08 14:44:43;;;;;;;5.30;2.42;;;;;;;;;;5049373;28;20283;-74
2022/06/08 14:47:26;;;;;;;3.67;2.20;;;;;;;;;;5049563;28;20049;-74
2022/06/08 14:49:56;;;;;;;2.75;1.70;;;;;;;;;;5051535;28;20053;-74
2022/06/08 14:52:26;;;;;;;3.33;2.38;;;;;;;;;;5050943;28;20052;-75
2022/06/08 14:54:56;;;;;;;8.48;2.28;;;;;;;;;;5048529;28;20053;-74
2022/06/08 14:57:31;;;;;;;4.80;2.20;;;;;;;;;;5049428;28;20041;-75
2022/06/08 15:00:13;;;;;;;7.93;2.47;;;;;;;;;;5048510;28;20045;-74
2022/06/08 15:02:44;;;;;;;7.28;2.65;;;;;;;;;;5048554;28;20053;-74
2022/06/08 15:05:20;;;;;;;3.28;1.90;;;;;;;;;;5048649;28;20060;-75
2022/06/08 15:07:50;;;;;;;19.30;4.05;;;;;;;;;;5048234;28;20057;-74
2022/06/08 15:10:21;;;;;;;4.13;2.43;;;;;;;;;;5048800;28;20515;-74
2022/06/08 15:12:51;;;;;;;3.75;2.22;;;;;;;;;;5049008;28;20056;-74
2022/06/08 15:15:23;;;;;;;;;;;;;;;;;;5049160;28;20539;-74
2022/06/08 15:17:56;;;;;;;9.25;2.67;;;;;;;;;;5048297;28;19924;-76
2022/06/08 15:20:33;;;;;;;14.23;5.35;;;;;;;;;;5048182;28;20147;-75
2022/06/08 15:23:03;;;;;;;7.45;2.00;;;;;;;;;;5048187;28;20045;-76
2022/06/08 15:25:37;;;;;;;5.30;2.50;;;;;;;;;;5047647;28;20071;-75
2022/06/08 15:28:13;;;;;;;5.85;3.63;;;;;;;;;;5048927;28;20051;-75
2022/06/08 15:30:43;;;;;;;20.80;3.55;;;;;;;;;;5048039;28;20044;-75
2022/06/08 15:33:19;;;;;;;3.55;2.75;;;;;;;;;;5048304;28;20045;-75
2022/06/08 15:36:10;;;;;;;3.92;2.40;;;;;;;;;;5048263;28;20049;-76
2022/06/08 15:38:55;;;;;;;5.22;2.28;;;;;;;;;;5048152;28;20049;-75
2022/06/08 15:41:26;;;;;;;6.38;2.55;;;;;;;;;;5048354;28;20056;-75
2022/06/08 15:43:56;;;;;;;4.13;2.30;;;;;;;;;;5047665;28;20416;-76